Time;durP1;ratioP1;P1;durP2;ratioP2;P2;SDS_P1;SDS_P2;PMS_P1;PMS_P2;Temp;Humidity;BMP_temperature;BMP_pressure;BME280_temperature;BME280_humidity;BME280_pressure;Samples;Min_cycle;Max_cycle;Signal;HPM_P1;HPM_P2
2023/02/25 00:01:05;;;;;;;10.27;4.88;;;;;;;3.09;100.00;96130.88;5060820;28;20048;-59
2023/02/25 00:03:32;;;;;;;10.25;5.50;;;;;;;3.01;100.00;96123.19;5061890;28;20052;-60
2023/02/25 00:06:12;;;;;;;9.02;4.80;;;;;;;3.05;100.00;96126.22;5067879;28;20545;-61
2023/02/25 00:08:43;;;;;;;9.00;4.60;;;;;;;3.01;100.00;96127.72;5061388;28;20656;-61
2023/02/25 00:11:10;;;;;;;8.82;4.28;;;;;;;2.98;100.00;96131.69;5058504;28;20135;-61
2023/02/25 00:13:39;;;;;;;7.63;4.47;;;;;;;2.93;100.00;96132.41;5063096;28;20552;-60
2023/02/25 00:16:07;;;;;;;9.68;4.63;;;;;;;2.95;100.00;96138.31;5059642;28;20048;-62
2023/02/25 00:18:34;;;;;;;8.27;5.07;;;;;;;2.97;100.00;96132.72;5067547;28;20068;-61
2023/02/25 00:21:04;;;;;;;8.80;4.68;;;;;;;2.97;100.00;96133.56;5063295;28;20037;-61
2023/02/25 00:23:31;;;;;;;9.88;4.55;;;;;;;2.98;100.00;96131.69;5067353;28;20779;-60
2023/02/25 00:25:59;;;;;;;10.02;4.82;;;;;;;2.98;100.00;96140.53;5064611;28;20041;-61
2023/02/25 00:28:26;;;;;;;7.28;3.88;;;;;;;3.02;100.00;96134.72;5064213;28;20044;-59
2023/02/25 00:30:53;;;;;;;7.25;3.90;;;;;;;3.09;100.00;96135.38;5055838;28;20037;-61
2023/02/25 00:33:20;;;;;;;7.57;4.47;;;;;;;3.19;100.00;96146.31;5057923;28;20075;-60
2023/02/25 00:35:48;;;;;;;9.18;3.67;;;;;;;3.17;100.00;96143.06;5065127;28;20045;-60
2023/02/25 00:38:16;;;;;;;7.63;3.80;;;;;;;3.23;100.00;96147.47;5059347;28;20044;-61
2023/02/25 00:40:45;;;;;;;7.00;4.10;;;;;;;3.17;100.00;96145.72;5056695;28;20045;-59
2023/02/25 00:43:11;;;;;;;6.88;3.67;;;;;;;3.14;100.00;96142.72;5058792;28;20045;-61
2023/02/25 00:45:41;;;;;;;10.02;4.30;;;;;;;3.14;100.00;96132.03;5060142;28;20123;-60
2023/02/25 00:48:08;;;;;;;8.35;3.65;;;;;;;3.06;100.00;96128.66;5066356;28;20033;-61
2023/02/25 00:50:35;;;;;;;8.60;3.92;;;;;;;3.16;100.00;96133.41;5064501;28;20478;-59
2023/02/25 00:53:01;;;;;;;7.22;3.22;;;;;;;3.14;100.00;96146.22;5067746;28;20048;-60
2023/02/25 00:55:32;;;;;;;7.80;4.28;;;;;;;3.12;100.00;96134.94;5066898;28;20098;-61
2023/02/25 00:58:02;;;;;;;7.70;4.00;;;;;;;3.17;100.00;96137.69;5065616;28;20033;-61
2023/02/25 01:00:29;;;;;;;8.73;3.85;;;;;;;3.26;100.00;96140.84;5061287;28;20072;-61
2023/02/25 01:03:06;;;;;;;8.15;3.92;;;;;;;3.31;100.00;96140.16;5066349;28;20063;-60
2023/02/25 01:05:32;;;;;;;8.40;3.88;;;;;;;3.38;100.00;96143.50;5062070;28;20051;-62
2023/02/25 01:07:59;;;;;;;7.50;3.53;;;;;;;3.28;100.00;96144.09;5064079;28;20044;-61
2023/02/25 01:10:26;;;;;;;7.75;4.32;;;;;;;3.21;99.35;96148.78;5059264;28;20067;-60
2023/02/25 01:12:53;;;;;;;7.25;3.33;;;;;;;3.22;100.00;96145.03;5063684;28;20082;-58
2023/02/25 01:15:19;;;;;;;10.23;3.78;;;;;;;3.21;99.26;96140.75;5062257;28;20695;-59
2023/02/25 01:17:46;;;;;;;7.32;3.10;;;;;;;3.03;100.00;96157.72;5063216;28;20123;-60
2023/02/25 01:20:13;;;;;;;5.50;3.13;;;;;;;3.07;100.00;96158.91;5062128;28;20057;-61
2023/02/25 01:22:40;;;;;;;8.65;3.78;;;;;;;2.95;100.00;96165.06;5064803;28;20041;-59
2023/02/25 01:25:11;;;;;;;7.43;3.70;;;;;;;2.79;100.00;96171.91;5060838;28;20041;-60
2023/02/25 01:27:37;;;;;;;9.73;3.85;;;;;;;2.95;100.00;96162.38;5051807;28;20044;-60
2023/02/25 01:30:05;;;;;;;8.68;3.38;;;;;;;2.98;100.00;96177.13;5061818;28;20033;-59
2023/02/25 01:32:31;;;;;;;8.70;3.55;;;;;;;2.97;100.00;96184.38;5063892;28;20052;-61
2023/02/25 01:34:58;;;;;;;6.93;3.03;;;;;;;2.87;100.00;96186.78;5054992;28;20041;-61
2023/02/25 01:37:25;;;;;;;9.88;3.40;;;;;;;2.96;100.00;96188.09;5061675;28;20048;-59
2023/02/25 01:39:51;;;;;;;6.70;3.38;;;;;;;2.97;100.00;96176.34;5068591;28;20110;-60
2023/02/25 01:42:18;;;;;;;6.35;3.00;;;;;;;2.88;98.91;96190.28;5057985;28;20515;-60
2023/02/25 01:45:09;;;;;;;8.63;3.15;;;;;;;2.98;100.00;96177.13;5052003;28;20078;-60
2023/02/25 01:47:38;;;;;;;7.88;3.40;;;;;;;2.88;100.00;96172.41;5061359;28;20120;-59
2023/02/25 01:50:06;;;;;;;6.70;2.83;;;;;;;2.92;100.00;96167.38;5061954;28;20131;-58
2023/02/25 01:52:33;;;;;;;6.55;3.67;;;;;;;2.91;98.37;96168.44;5055357;28;20078;-60
2023/02/25 01:54:59;;;;;;;8.55;3.40;;;;;;;3.04;100.00;96164.69;5059455;28;20443;-61
2023/02/25 01:57:26;;;;;;;8.00;3.25;;;;;;;3.01;100.00;96162.50;5056048;28;20052;-61
2023/02/25 01:59:53;;;;;;;5.82;3.03;;;;;;;2.95;100.00;96159.69;5064455;28;20043;-59
2023/02/25 02:02:24;;;;;;;7.95;3.53;;;;;;;3.02;100.00;96159.59;5061586;28;20049;-61
2023/02/25 02:04:52;;;;;;;6.55;3.30;;;;;;;3.12;100.00;96159.00;5058620;28;20051;-61
2023/02/25 02:07:22;;;;;;;5.50;2.88;;;;;;;3.08;100.00;96161.34;5057862;28;20041;-60
2023/02/25 02:09:58;;;;;;;7.53;3.45;;;;;;;2.97;100.00;96168.31;5063038;28;20044;-60
2023/02/25 02:12:30;;;;;;;7.63;3.35;;;;;;;2.77;100.00;96176.69;5060010;28;20063;-61
2023/02/25 02:14:59;;;;;;;10.05;3.35;;;;;;;2.69;100.00;96180.50;5058996;28;20037;-59
2023/02/25 02:17:44;;;;;;;6.22;3.28;;;;;;;2.65;100.00;96175.88;5064241;28;20044;-60
2023/02/25 02:20:25;;;;;;;5.03;3.10;;;;;;;2.70;100.00;96176.78;5054173;28;20097;-60
2023/02/25 02:23:40;;;;;;;6.30;2.90;;;;;;;2.79;100.00;96174.59;5062265;28;20114;-59
2023/02/25 02:26:43;;;;;;;7.78;3.00;;;;;;;2.69;96.61;96185.06;5033178;28;20041;-60
2023/02/25 02:29:31;;;;;;;6.53;3.20;;;;;;;2.64;96.79;96190.25;5039679;28;20048;-60
2023/02/25 02:32:19;;;;;;;5.68;2.42;;;;;;;2.78;96.45;96189.00;5056770;28;20045;-59
2023/02/25 02:35:11;;;;;;;6.07;2.00;;;;;;;2.91;93.75;96195.97;5064977;28;20143;-60
2023/02/25 02:37:46;;;;;;;;;;;;;;;2.70;95.28;96182.13;5067987;28;20048;-60
2023/02/25 02:40:33;;;;;;;5.68;2.55;;;;;;;2.73;97.76;96192.34;5059459;28;20291;-61
2023/02/25 02:43:16;;;;;;;9.43;3.15;;;;;;;2.63;96.96;96202.00;5057000;28;20493;-61
2023/02/25 02:45:48;;;;;;;5.80;2.15;;;;;;;2.68;96.91;96192.25;5060446;28;20056;-59
2023/02/25 02:48:43;;;;;;;5.13;2.20;;;;;;;2.76;95.55;96198.31;5062965;28;20055;-59
2023/02/25 02:51:17;;;;;;;6.78;2.70;;;;;;;2.66;96.21;96198.88;5059530;28;20041;-60
2023/02/25 02:53:49;;;;;;;6.53;2.40;;;;;;;2.77;97.43;96207.94;5055781;28;20205;-61
2023/02/25 02:56:19;;;;;;;5.05;1.98;;;;;;;2.67;96.39;96206.66;5057103;28;20072;-61
2023/02/25 02:59:06;;;;;;;4.32;2.03;;;;;;;2.77;95.22;96206.09;5055206;28;20047;-60
2023/02/25 03:01:38;;;;;;;6.38;1.98;;;;;;;2.67;92.46;96204.00;5061000;28;20423;-61
2023/02/25 03:04:11;;;;;;;5.13;1.92;;;;;;;2.72;91.80;96208.63;5057520;28;20075;-59
2023/02/25 03:06:48;;;;;;;5.07;1.90;;;;;;;2.76;93.45;96203.66;5059119;28;20511;-61
2023/02/25 03:09:21;;;;;;;5.35;1.75;;;;;;;2.69;91.71;96201.88;5055777;28;20471;-61
2023/02/25 03:11:49;;;;;;;3.97;1.70;;;;;;;2.65;92.90;96213.28;5056079;28;20123;-61
2023/02/25 03:14:17;;;;;;;3.60;1.60;;;;;;;2.74;90.19;96214.56;5053154;28;20040;-61
2023/02/25 03:16:49;;;;;;;6.60;1.65;;;;;;;2.76;88.43;96209.78;5059028;28;20468;-60
2023/02/25 03:19:30;;;;;;;4.32;1.42;;;;;;;2.77;89.57;96218.63;5057332;28;20048;-61
2023/02/25 03:22:32;;;;;;;3.55;1.60;;;;;;;2.65;88.95;96219.41;5059306;28;20129;-59
2023/02/25 03:25:17;;;;;;;;;;;;;;;2.67;92.39;96214.69;5051003;28;20041;-61
2023/02/25 03:27:47;;;;;;;3.90;1.55;;;;;;;2.72;91.56;96216.66;5060806;28;19921;-61
2023/02/25 03:30:28;;;;;;;4.65;1.67;;;;;;;2.53;92.70;96215.91;5060793;28;20060;-61
2023/02/25 03:33:00;;;;;;;4.05;1.60;;;;;;;2.51;92.08;96218.00;5060420;28;20075;-59
2023/02/25 03:35:29;;;;;;;3.40;1.45;;;;;;;2.55;91.38;96217.31;5062404;28;20053;-61
2023/02/25 03:38:03;;;;;;;5.03;1.60;;;;;;;2.56;91.17;96215.47;5064732;28;20095;-58
2023/02/25 03:40:33;;;;;;;6.30;2.13;;;;;;;2.67;86.88;96220.03;5056678;28;20105;-57
2023/02/25 03:43:06;;;;;;;8.40;1.92;;;;;;;2.68;91.61;96218.16;5052751;28;20033;-61
2023/02/25 03:45:37;;;;;;;4.95;1.75;;;;;;;2.72;90.73;96219.31;5066581;28;20048;-59
2023/02/25 03:48:04;;;;;;;3.95;1.70;;;;;;;2.72;87.12;96228.16;5057078;28;20508;-58
2023/02/25 03:50:41;;;;;;;6.03;1.60;;;;;;;2.78;89.65;96222.94;5051071;28;20041;-57
2023/02/25 03:53:10;;;;;;;2.95;1.20;;;;;;;2.78;88.88;96222.94;5052065;28;20048;-61
2023/02/25 03:55:59;;;;;;;7.55;1.77;;;;;;;2.61;91.16;96228.94;5057391;28;20051;-60
2023/02/25 03:58:26;;;;;;;3.17;1.30;;;;;;;2.67;92.21;96229.88;5052371;28;20693;-57
2023/02/25 04:00:56;;;;;;;6.95;2.08;;;;;;;2.66;90.83;96234.44;5061182;28;20124;-58
2023/02/25 04:03:23;;;;;;;5.35;1.67;;;;;;;2.67;92.58;96241.41;5059838;28;20101;-59
2023/02/25 04:05:49;;;;;;;5.63;1.80;;;;;;;2.50;93.49;96241.22;5058139;28;20040;-60
2023/02/25 04:08:16;;;;;;;4.47;2.08;;;;;;;2.47;93.18;96241.72;5056166;28;20041;-59
2023/02/25 04:10:45;;;;;;;5.07;1.83;;;;;;;2.42;92.15;96257.59;5055107;28;20033;-58
2023/02/25 04:13:14;;;;;;;5.72;1.85;;;;;;;2.42;94.33;96254.91;5064096;28;20040;-60
2023/02/25 04:15:42;;;;;;;3.50;1.70;;;;;;;2.40;94.24;96257.00;5058105;28;20050;-59
2023/02/25 04:18:08;;;;;;;4.00;1.40;;;;;;;2.45;93.52;96263.31;5061385;28;20135;-60
2023/02/25 04:20:35;;;;;;;4.05;1.60;;;;;;;2.39;93.04;96269.53;5056048;28;20093;-61
2023/02/25 04:23:01;;;;;;;3.15;1.20;;;;;;;2.33;93.16;96267.78;5058938;28;20071;-60
2023/02/25 04:25:28;;;;;;;3.83;1.20;;;;;;;2.32;89.43;96266.16;5062816;28;20134;-61
2023/02/25 04:27:54;;;;;;;3.58;1.30;;;;;;;2.31;88.79;96260.00;5056572;28;20103;-56
2023/02/25 04:30:21;;;;;;;5.22;1.30;;;;;;;2.31;87.97;96272.53;5057209;28;20032;-59
2023/02/25 04:32:47;;;;;;;7.10;1.50;;;;;;;2.29;87.79;96263.94;5058798;28;20123;-61
2023/02/25 04:35:14;;;;;;;3.25;1.42;;;;;;;2.30;86.30;96266.38;5056959;28;20516;-61
2023/02/25 04:37:41;;;;;;;2.25;1.13;;;;;;;2.19;89.42;96267.16;5060612;28;20047;-56
2023/02/25 04:40:18;;;;;;;4.72;1.60;;;;;;;2.19;87.16;96270.66;5063824;28;20041;-59
2023/02/25 04:42:45;;;;;;;7.75;1.00;;;;;;;2.23;91.24;96265.66;5056510;28;20577;-56
2023/02/25 04:45:12;;;;;;;5.13;1.10;;;;;;;2.17;87.32;96259.34;5062930;28;20115;-60
2023/02/25 04:47:39;;;;;;;4.60;1.55;;;;;;;2.17;86.18;96269.22;5059235;28;20149;-58
2023/02/25 04:50:07;;;;;;;4.53;1.15;;;;;;;2.15;87.73;96265.97;5059323;28;20044;-59
2023/02/25 04:52:35;;;;;;;2.30;0.80;;;;;;;2.06;87.07;96266.28;5056948;28;20845;-61
2023/02/25 04:55:01;;;;;;;5.05;1.67;;;;;;;2.12;84.52;96272.56;5066624;28;20101;-57
2023/02/25 04:57:28;;;;;;;4.53;1.15;;;;;;;2.12;86.02;96272.56;5060229;28;20107;-61
2023/02/25 04:59:54;;;;;;;3.95;0.90;;;;;;;2.11;84.32;96273.63;5051805;28;20111;-60
2023/02/25 05:02:21;;;;;;;2.97;1.05;;;;;;;2.17;86.95;96275.38;5054599;28;20074;-59
2023/02/25 05:04:47;;;;;;;4.82;0.90;;;;;;;2.10;84.99;96263.97;5052159;28;20111;-60
2023/02/25 05:07:14;;;;;;;3.63;0.90;;;;;;;1.89;83.40;96266.09;5060698;28;20747;-60
2023/02/25 05:09:40;;;;;;;3.75;0.82;;;;;;;1.97;83.15;96269.47;5056898;28;20040;-59
2023/02/25 05:12:07;;;;;;;7.72;1.20;;;;;;;2.05;82.60;96278.00;5067592;28;20043;-59
2023/02/25 05:14:35;;;;;;;4.60;1.15;;;;;;;1.92;82.79;96265.63;5057705;28;20071;-58
2023/02/25 05:17:03;;;;;;;3.00;0.90;;;;;;;1.98;84.15;96269.25;5056161;28;20102;-60
2023/02/25 05:19:30;;;;;;;5.25;0.98;;;;;;;1.92;85.08;96270.94;5055368;28;20674;-60
2023/02/25 05:21:56;;;;;;;4.45;0.95;;;;;;;1.94;85.37;96260.88;5054804;28;20745;-57
2023/02/25 05:24:23;;;;;;;2.55;0.82;;;;;;;1.80;85.90;96262.06;5056653;28;20551;-60
2023/02/25 05:26:50;;;;;;;2.63;0.73;;;;;;;1.88;87.16;96266.31;5066547;28;20040;-60
2023/02/25 05:29:17;;;;;;;4.68;1.27;;;;;;;1.81;86.18;96269.06;5061256;28;20040;-60
2023/02/25 05:31:43;;;;;;;5.82;1.23;;;;;;;1.83;85.65;96274.16;5060643;28;20033;-58
2023/02/25 05:34:10;;;;;;;6.53;1.05;;;;;;;1.85;87.91;96262.22;5055684;28;20383;-59
2023/02/25 05:36:37;;;;;;;7.18;1.08;;;;;;;1.84;86.40;96271.25;5069227;28;20044;-60
2023/02/25 05:39:05;;;;;;;4.05;1.05;;;;;;;1.95;88.59;96267.00;5059016;28;20437;-58
2023/02/25 05:41:31;;;;;;;6.20;1.83;;;;;;;1.81;86.13;96267.19;5062981;28;20051;-60
2023/02/25 05:43:58;;;;;;;3.97;1.00;;;;;;;1.90;86.50;96261.53;5053686;28;20037;-58
2023/02/25 05:46:25;;;;;;;2.83;1.02;;;;;;;1.77;88.31;96262.53;5052979;28;20593;-60
2023/02/25 05:48:52;;;;;;;3.03;1.20;;;;;;;1.75;88.04;96260.06;5044996;28;20048;-59
2023/02/25 05:51:22;;;;;;;1.77;0.80;;;;;;;1.77;88.05;96262.53;5058445;28;20115;-60
2023/02/25 05:53:49;;;;;;;7.43;1.23;;;;;;;1.74;89.44;96262.97;5054205;28;20044;-60
2023/02/25 05:56:21;;;;;;;4.93;1.23;;;;;;;1.69;88.52;96264.44;5062094;28;20044;-58
2023/02/25 05:58:48;;;;;;;5.38;1.30;;;;;;;1.71;87.97;96258.06;5066225;28;20047;-59
2023/02/25 06:01:18;;;;;;;3.53;0.77;;;;;;;1.67;87.66;96261.16;5067372;28;20040;-61
2023/02/25 06:03:46;;;;;;;3.75;1.02;;;;;;;1.86;85.86;96265.69;5060877;28;20036;-58
2023/02/25 06:06:15;;;;;;;3.15;0.80;;;;;;;1.77;88.27;96271.34;5068644;28;20049;-61
2023/02/25 06:08:43;;;;;;;3.42;1.33;;;;;;;1.79;88.72;96279.13;5057652;28;20044;-60
2023/02/25 06:11:14;;;;;;;3.53;0.85;;;;;;;1.88;87.96;96283.13;5063501;28;20044;-57
2023/02/25 06:13:41;;;;;;;3.10;0.90;;;;;;;1.66;87.40;96291.56;5061303;28;20036;-61
2023/02/25 06:16:08;;;;;;;2.08;0.85;;;;;;;1.63;88.39;96291.22;5060946;28;20040;-60
2023/02/25 06:18:38;;;;;;;2.60;0.80;;;;;;;1.74;85.70;96285.16;5067040;28;20082;-54
2023/02/25 06:21:06;;;;;;;2.97;0.93;;;;;;;1.84;85.73;96297.94;5064902;28;20137;-60
2023/02/25 06:23:35;;;;;;;5.72;0.98;;;;;;;1.84;86.25;96294.47;5068314;28;20564;-60
2023/02/25 06:26:03;;;;;;;4.28;1.10;;;;;;;1.74;85.32;96298.50;5063616;28;20044;-60
2023/02/25 06:28:31;;;;;;;3.20;2.17;;;;;;;1.76;85.50;96312.41;5069933;28;20119;-58
2023/02/25 06:30:59;;;;;;;3.90;1.00;;;;;;;1.79;84.99;96311.16;5065640;28;20414;-60
2023/02/25 06:33:27;;;;;;;2.25;0.73;;;;;;;1.74;86.19;96309.16;5059879;28;20056;-58
2023/02/25 06:35:55;;;;;;;1.60;0.85;;;;;;;1.69;85.42;96299.13;5067338;28;20048;-60
2023/02/25 06:38:21;;;;;;;4.60;0.93;;;;;;;1.72;85.30;96299.72;5058971;28;20040;-60
2023/02/25 06:40:48;;;;;;;2.83;0.90;;;;;;;1.69;86.79;96295.66;5063657;28;20691;-60
2023/02/25 06:43:16;;;;;;;6.75;1.48;;;;;;;1.68;84.55;96310.03;5064409;28;20068;-60
2023/02/25 06:45:43;;;;;;;6.40;1.10;;;;;;;1.73;83.87;96298.72;5063359;28;20497;-61
2023/02/25 06:48:10;;;;;;;4.68;1.92;;;;;;;1.82;85.59;96302.69;5061239;28;20053;-61
2023/02/25 06:50:42;;;;;;;4.80;1.10;;;;;;;1.64;85.81;96307.00;5060792;28;20154;-59
2023/02/25 06:53:08;;;;;;;5.10;1.00;;;;;;;1.67;85.62;96308.41;5063135;28;20040;-58
2023/02/25 06:55:38;;;;;;;5.25;1.02;;;;;;;1.81;83.74;96315.22;5060659;28;20079;-58
2023/02/25 06:58:05;;;;;;;2.00;0.90;;;;;;;1.85;83.28;96310.28;5064974;28;20124;-60
2023/02/25 07:00:31;;;;;;;2.22;0.95;;;;;;;1.75;85.26;96321.47;5062204;28;20602;-58
2023/02/25 07:02:58;;;;;;;3.53;0.98;;;;;;;1.76;85.02;96323.09;5064243;28;20730;-58
2023/02/25 07:05:24;;;;;;;2.85;0.88;;;;;;;1.89;82.04;96332.00;5065415;28;20454;-59
2023/02/25 07:07:51;;;;;;;3.67;1.05;;;;;;;1.81;83.20;96333.13;5062954;28;20051;-60
2023/02/25 07:10:17;;;;;;;3.67;1.20;;;;;;;1.81;83.99;96339.25;5061298;28;20506;-59
2023/02/25 07:12:44;;;;;;;2.25;0.80;;;;;;;1.93;83.29;96342.03;5059890;28;20044;-60
2023/02/25 07:15:10;;;;;;;2.08;0.80;;;;;;;1.66;83.31;96339.59;5075206;28;20054;-58
2023/02/25 07:17:37;;;;;;;5.00;1.10;;;;;;;1.60;80.66;96335.16;5061130;28;20588;-60
2023/02/25 07:20:03;;;;;;;4.07;0.85;;;;;;;1.61;81.53;96341.28;5065272;28;20045;-60
2023/02/25 07:22:30;;;;;;;2.58;1.60;;;;;;;1.70;81.71;96337.31;5064433;28;20044;-58
2023/02/25 07:24:56;;;;;;;4.10;1.00;;;;;;;1.79;83.52;96340.50;5065211;28;20041;-60
2023/02/25 07:27:23;;;;;;;1.33;0.73;;;;;;;1.87;81.39;96342.88;5069905;28;20069;-58
2023/02/25 07:29:50;;;;;;;3.17;0.73;;;;;;;1.98;83.79;96351.22;5070153;28;20066;-59
2023/02/25 07:32:16;;;;;;;4.28;0.88;;;;;;;2.16;79.98;96343.19;5067227;28;20788;-60
2023/02/25 07:34:43;;;;;;;3.33;0.80;;;;;;;1.96;80.29;96348.75;5061060;28;20039;-61
2023/02/25 07:37:11;;;;;;;4.47;0.90;;;;;;;1.95;80.27;96349.78;5064638;28;20051;-59
2023/02/25 07:39:38;;;;;;;3.13;0.90;;;;;;;2.07;84.20;96341.88;5066531;28;20040;-59
2023/02/25 07:42:04;;;;;;;5.60;1.30;;;;;;;2.19;83.03;96332.06;5065537;28;20128;-61
2023/02/25 07:44:34;;;;;;;5.10;1.00;;;;;;;2.12;80.74;96334.00;5057234;28;20063;-60
2023/02/25 07:47:01;;;;;;;3.22;1.15;;;;;;;2.11;77.80;96331.53;5068214;28;25065;-60
2023/02/25 07:49:27;;;;;;;3.00;0.98;;;;;;;2.01;78.21;96326.72;5070138;28;20321;-60
2023/02/25 07:51:54;;;;;;;3.65;1.08;;;;;;;1.91;78.68;96330.72;5066456;28;20434;-60
2023/02/25 07:54:21;;;;;;;4.53;1.08;;;;;;;2.03;78.83;96333.47;5061724;28;20040;-59
2023/02/25 07:56:51;;;;;;;1.95;0.70;;;;;;;2.31;78.91;96333.97;5071607;28;20449;-58
2023/02/25 07:59:18;;;;;;;3.33;0.80;;;;;;;2.46;74.02;96329.06;5069382;28;20048;-60
2023/02/25 08:01:44;;;;;;;3.03;2.08;;;;;;;2.38;74.58;96325.88;5058527;28;20040;-61
2023/02/25 08:04:11;;;;;;;4.60;1.10;;;;;;;2.30;75.52;96338.53;5064829;28;20047;-58
2023/02/25 08:06:39;;;;;;;4.10;1.00;;;;;;;2.36;76.10;96334.09;5067898;28;20044;-60
2023/02/25 08:09:09;;;;;;;4.05;1.17;;;;;;;2.15;77.04;96338.06;5066065;28;20098;-59
2023/02/25 08:11:37;;;;;;;5.25;1.10;;;;;;;2.12;76.28;96331.31;5069918;28;20554;-60
2023/02/25 08:14:04;;;;;;;4.53;1.20;;;;;;;2.07;76.77;96325.84;5061157;28;20075;-59
2023/02/25 08:16:31;;;;;;;3.22;0.98;;;;;;;2.17;80.38;96334.13;5067893;28;20075;-57
2023/02/25 08:18:58;;;;;;;3.20;1.00;;;;;;;2.09;77.63;96331.75;5060218;28;20531;-59
2023/02/25 08:21:25;;;;;;;4.10;0.93;;;;;;;2.12;77.89;96336.66;5070262;28;20068;-59
2023/02/25 08:23:53;;;;;;;4.13;1.05;;;;;;;2.11;78.04;96340.38;5061860;28;20142;-58
2023/02/25 08:26:21;;;;;;;4.60;1.10;;;;;;;2.25;77.93;96354.38;5062620;28;20596;-58
2023/02/25 08:28:50;;;;;;;3.97;1.10;;;;;;;2.45;80.48;96350.66;5065363;28;20136;-60
2023/02/25 08:31:17;;;;;;;2.65;1.20;;;;;;;2.58;78.85;96344.34;5064731;28;20033;-60
2023/02/25 08:33:51;;;;;;;4.88;1.13;;;;;;;2.58;75.77;96328.31;5064392;28;20040;-59
2023/02/25 08:36:24;;;;;;;2.85;0.93;;;;;;;2.66;77.23;96344.03;5062243;28;20044;-62
2023/02/25 08:38:51;;;;;;;4.50;1.00;;;;;;;2.87;76.23;96352.56;5062658;28;20045;-61
2023/02/25 08:41:19;;;;;;;3.17;1.05;;;;;;;3.03;75.10;96347.63;5064069;28;20118;-60
2023/02/25 08:43:53;;;;;;;4.50;1.17;;;;;;;3.14;75.96;96352.19;5063549;28;20768;-59
2023/02/25 08:46:21;;;;;;;7.35;1.35;;;;;;;3.16;75.21;96350.09;5064274;28;20530;-61
2023/02/25 08:48:49;;;;;;;2.42;1.00;;;;;;;3.16;73.37;96350.09;5055761;28;20089;-60
2023/02/25 08:51:16;;;;;;;2.50;1.10;;;;;;;3.35;71.32;96340.09;5066187;28;20040;-60
2023/02/25 08:53:43;;;;;;;4.25;1.15;;;;;;;3.73;70.21;96338.00;5059058;28;20515;-59
2023/02/25 08:56:13;;;;;;;2.85;1.08;;;;;;;3.49;70.98;96343.38;5068654;28;20044;-57
2023/02/25 08:58:40;;;;;;;2.90;0.73;;;;;;;3.49;68.05;96338.03;5071013;28;20079;-59
2023/02/25 09:01:13;;;;;;;2.17;1.00;;;;;;;3.44;68.27;96340.59;5062781;28;20041;-59
2023/02/25 09:03:49;;;;;;;3.20;0.80;;;;;;;3.60;67.30;96339.09;5066999;28;20048;-60
2023/02/25 09:06:21;;;;;;;2.65;0.80;;;;;;;3.65;66.17;96338.41;5067517;28;20042;-60
2023/02/25 09:08:49;;;;;;;2.60;0.82;;;;;;;3.69;63.53;96339.53;5070093;28;20040;-57
2023/02/25 09:11:17;;;;;;;2.28;0.73;;;;;;;3.97;66.21;96329.97;5072215;28;20115;-59
2023/02/25 09:13:44;;;;;;;2.40;0.60;;;;;;;3.89;65.47;96330.34;5060817;28;20054;-60
2023/02/25 09:16:14;;;;;;;3.00;0.90;;;;;;;3.85;64.11;96340.72;5066159;28;20683;-60
2023/02/25 09:18:41;;;;;;;3.33;0.80;;;;;;;4.00;62.73;96332.19;5069575;28;20035;-57
2023/02/25 09:21:07;;;;;;;2.78;0.60;;;;;;;4.06;63.47;96329.63;5065006;28;20110;-61
2023/02/25 09:23:33;;;;;;;1.63;0.50;;;;;;;4.22;61.71;96320.03;5061301;28;20040;-58
2023/02/25 09:26:04;;;;;;;3.50;0.88;;;;;;;4.22;61.07;96334.25;5064134;28;20494;-58
2023/02/25 09:28:31;;;;;;;3.78;0.70;;;;;;;4.19;65.02;96334.72;5066875;28;20056;-58
2023/02/25 09:30:58;;;;;;;3.97;0.75;;;;;;;3.66;60.73;96337.34;5068707;28;20043;-59
2023/02/25 09:33:25;;;;;;;5.88;1.33;;;;;;;3.71;63.82;96345.47;5060807;28;20068;-59
2023/02/25 09:35:52;;;;;;;4.47;0.77;;;;;;;3.47;63.52;96337.44;5072424;28;20566;-58
2023/02/25 09:38:19;;;;;;;2.00;0.70;;;;;;;3.69;65.30;96331.50;5060778;28;20059;-59
2023/02/25 09:40:47;;;;;;;3.85;0.68;;;;;;;3.88;62.87;96323.34;5068092;28;20487;-60
2023/02/25 09:43:42;;;;;;;4.43;0.98;;;;;;;3.86;63.35;96312.03;5063287;28;20045;-59
2023/02/25 09:46:14;;;;;;;0.85;0.32;;;;;;;3.92;62.12;96316.47;5052632;28;20503;-57
2023/02/25 09:48:51;;;;;;;;;;;;;;;3.94;60.31;96305.53;5063161;28;20058;-60
2023/02/25 09:51:22;;;;;;;1.05;0.50;;;;;;;4.01;61.53;96312.38;5070400;28;19927;-59
2023/02/25 09:54:09;;;;;;;2.75;0.52;;;;;;;3.85;61.11;96313.94;5061469;28;20042;-59
2023/02/25 09:56:37;;;;;;;3.25;0.60;;;;;;;3.89;61.53;96315.09;5059662;28;20133;-60
2023/02/25 09:59:13;;;;;;;4.50;0.50;;;;;;;3.86;61.49;96320.09;5057280;28;20052;-59
2023/02/25 10:02:21;;;;;;;2.60;0.50;;;;;;;3.78;61.09;96315.91;5069365;28;20506;-59
2023/02/25 10:04:53;;;;;;;2.45;0.70;;;;;;;3.80;63.58;96329.06;5054308;28;20040;-58
2023/02/25 10:07:30;;;;;;;1.63;0.77;;;;;;;3.89;64.16;96322.28;5058664;28;20044;-58
2023/02/25 10:10:18;;;;;;;3.63;0.60;;;;;;;3.88;63.32;96326.03;5058532;28;20139;-60
2023/02/25 10:12:55;;;;;;;3.88;0.77;;;;;;;3.98;63.73;96334.28;5059379;28;20072;-60
2023/02/25 10:16:05;;;;;;;5.65;0.95;;;;;;;3.73;61.23;96343.38;5065842;28;20102;-59
2023/02/25 10:18:39;;;;;;;3.92;0.85;;;;;;;3.71;64.26;96336.63;5054825;28;20079;-60
2023/02/25 10:21:08;;;;;;;6.07;1.05;;;;;;;3.63;63.31;96332.44;5072949;28;20039;-58
2023/02/25 10:23:54;;;;;;;5.63;0.90;;;;;;;3.59;63.03;96339.31;5068993;28;20130;-58
2023/02/25 10:26:24;;;;;;;4.35;0.82;;;;;;;3.88;65.12;96340.22;5064910;28;20044;-59
2023/02/25 10:28:58;;;;;;;2.65;0.75;;;;;;;3.95;63.38;96333.94;5059521;28;20041;-60
2023/02/25 10:31:25;;;;;;;4.13;1.00;;;;;;;3.85;64.34;96331.84;5070911;28;20048;-58
2023/02/25 10:33:54;;;;;;;5.40;1.10;;;;;;;3.95;64.65;96318.69;5067559;28;20414;-60
2023/02/25 10:36:29;;;;;;;3.05;0.93;;;;;;;4.31;63.50;96320.47;5068085;28;20052;-60
2023/02/25 10:38:55;;;;;;;1.92;0.88;;;;;;;4.31;63.12;96310.56;5066541;28;20036;-58
2023/02/25 10:41:25;;;;;;;4.80;0.93;;;;;;;4.60;63.32;96304.41;5072082;28;20446;-57
2023/02/25 10:43:53;;;;;;;1.25;0.60;;;;;;;4.33;59.34;96299.59;5064530;28;20567;-60
2023/02/25 10:46:43;;;;;;;3.05;0.85;;;;;;;4.12;62.72;96291.97;5065515;28;20055;-59
2023/02/25 10:49:24;;;;;;;5.10;1.05;;;;;;;3.88;64.02;96297.38;5062565;28;20116;-59
2023/02/25 10:52:11;;;;;;;3.60;0.88;;;;;;;4.23;64.22;96292.16;5063433;28;20032;-60
2023/02/25 10:54:48;;;;;;;1.48;0.52;;;;;;;4.32;64.27;96295.28;5068980;28;20047;-59
2023/02/25 10:57:17;;;;;;;2.55;0.95;;;;;;;4.17;62.49;96302.00;5059658;28;20078;-59
2023/02/25 10:59:45;;;;;;;1.98;0.70;;;;;;;4.16;63.78;96297.66;5063867;28;20064;-60
2023/02/25 11:02:24;;;;;;;2.42;0.85;;;;;;;4.46;60.44;96291.28;5064317;28;20040;-60
2023/02/25 11:04:52;;;;;;;3.47;0.82;;;;;;;4.34;63.91;96293.19;5059010;28;20060;-57
2023/02/25 11:07:40;;;;;;;5.55;0.77;;;;;;;4.74;62.16;96303.06;5060887;28;20041;-59
2023/02/25 11:10:18;;;;;;;3.30;0.77;;;;;;;4.60;60.96;96299.84;5062964;28;20102;-60
2023/02/25 11:12:51;;;;;;;1.63;0.57;;;;;;;4.53;60.74;96307.22;5064625;28;20586;-60
2023/02/25 11:15:37;;;;;;;3.83;1.20;;;;;;;4.20;60.91;96304.19;5063577;28;20577;-60
2023/02/25 11:18:27;;;;;;;0.88;0.40;;;;;;;4.25;63.13;96298.94;5062378;28;20040;-60
2023/02/25 11:20:59;;;;;;;4.90;0.80;;;;;;;4.25;61.71;96292.75;5059865;28;20063;-59
2023/02/25 11:23:53;;;;;;;2.00;0.70;;;;;;;3.99;63.42;96300.28;5065201;28;20072;-60
2023/02/25 11:26:30;;;;;;;2.88;0.90;;;;;;;4.09;63.11;96297.00;5061964;28;20669;-58
2023/02/25 11:29:00;;;;;;;2.13;0.80;;;;;;;4.14;63.19;96297.09;5061034;28;20744;-60
2023/02/25 11:31:33;;;;;;;3.78;0.73;;;;;;;4.28;62.48;96293.09;5066420;28;20052;-59
2023/02/25 11:34:03;;;;;;;2.25;0.77;;;;;;;4.22;63.86;96295.91;5059887;28;20040;-60
2023/02/25 11:36:33;;;;;;;1.97;0.87;;;;;;;4.29;64.26;96292.06;5064279;28;20079;-60
2023/02/25 11:39:17;;;;;;;4.18;0.80;;;;;;;4.06;65.42;96292.09;5060846;28;20131;-59
2023/02/25 11:41:47;;;;;;;3.28;1.00;;;;;;;4.20;64.97;96292.66;5063377;28;20097;-60
2023/02/25 11:44:19;;;;;;;4.57;0.88;;;;;;;3.83;65.40;96293.78;5058057;28;20647;-59
2023/02/25 11:46:57;;;;;;;3.22;1.00;;;;;;;3.57;65.98;96301.28;5064051;28;20063;-59
2023/02/25 11:49:40;;;;;;;5.28;1.05;;;;;;;3.46;67.68;96310.94;5065880;28;20048;-59
2023/02/25 11:52:20;;;;;;;2.70;1.00;;;;;;;3.54;68.30;96299.03;5069634;28;20044;-58
2023/02/25 11:55:15;;;;;;;4.20;1.10;;;;;;;3.45;69.10;96298.56;5059981;28;20040;-57
2023/02/25 11:57:46;;;;;;;7.72;1.30;;;;;;;3.75;70.72;96290.41;5069806;28;20068;-58
2023/02/25 12:00:19;;;;;;;7.93;1.48;;;;;;;3.77;70.03;96282.94;5068228;28;20467;-58